createdAt,value
2018-12-05T00:00:40.300Z,98.04
2018-12-05T00:03:07.060Z,98.12
2018-12-05T00:05:33.848Z,97.77
2018-12-05T00:08:00.626Z,97.53
2018-12-05T00:10:27.405Z,98.26
2018-12-05T00:12:54.172Z,97.48
2018-12-05T00:15:20.949Z,97.18
2018-12-05T00:17:47.709Z,96.50
2018-12-05T00:20:14.505Z,96.91
2018-12-05T00:22:41.265Z,96.33
2018-12-05T00:25:08.065Z,97.03
2018-12-05T00:27:34.833Z,97.64
2018-12-05T00:30:01.599Z,97.39
2018-12-05T00:32:28.381Z,97.86
2018-12-05T00:34:55.144Z,98.34
2018-12-05T00:37:21.941Z,99.22
2018-12-05T00:39:48.710Z,99.23
2018-12-05T00:42:15.512Z,99.49
2018-12-05T00:44:42.289Z,99.46
2018-12-05T00:47:09.116Z,99.35
2018-12-05T00:49:35.871Z,99.58
2018-12-05T00:52:02.648Z,99.61
2018-12-05T00:54:29.413Z,98.91
2018-12-05T00:56:56.193Z,99.26
2018-12-05T00:59:22.965Z,100.00
2018-12-05T01:01:49.753Z,100.00
2018-12-05T01:04:16.528Z,100.00
2018-12-05T01:06:43.313Z,100.00
2018-12-05T01:09:12.254Z,100.00
2018-12-05T01:11:39.336Z,100.00
2018-12-05T01:14:06.103Z,100.00
2018-12-05T01:16:32.880Z,100.00
2018-12-05T01:18:59.640Z,100.00
2018-12-05T01:21:26.450Z,100.00
2018-12-05T01:23:53.213Z,100.00
2018-12-05T01:26:19.992Z,100.00
2018-12-05T01:28:46.750Z,100.00
2018-12-05T01:31:13.573Z,100.00
2018-12-05T01:33:40.331Z,100.00
2018-12-05T01:36:07.116Z,100.00
2018-12-05T01:38:33.896Z,100.00
2018-12-05T01:41:00.661Z,100.00
2018-12-05T01:43:46.310Z,100.00
2018-12-05T01:46:13.096Z,100.00
2018-12-05T01:48:39.864Z,100.00
2018-12-05T01:51:06.640Z,100.00
2018-12-05T01:53:33.425Z,100.00
2018-12-05T01:56:00.196Z,100.00
2018-12-05T01:58:26.989Z,100.00
2018-12-05T02:00:53.737Z,100.00
2018-12-05T02:03:20.529Z,100.00
2018-12-05T02:05:47.289Z,100.00
2018-12-05T02:08:14.073Z,100.00
2018-12-05T02:10:40.845Z,100.00
2018-12-05T02:13:07.628Z,100.00
2018-12-05T02:15:34.388Z,100.00
2018-12-05T02:18:01.165Z,100.00
2018-12-05T02:20:27.942Z,100.00
2018-12-05T02:22:54.717Z,100.00
2018-12-05T02:25:21.563Z,100.00
2018-12-05T02:27:48.256Z,100.00
2018-12-05T02:30:15.010Z,100.00
2018-12-05T02:32:41.781Z,100.00
2018-12-05T02:35:08.545Z,100.00
2018-12-05T02:37:35.328Z,100.00
2018-12-05T02:40:02.132Z,100.00
2018-12-05T02:42:28.913Z,100.00
2018-12-05T02:44:57.385Z,100.00
2018-12-05T02:47:22.448Z,100.00
2018-12-05T02:49:49.209Z,100.00
2018-12-05T02:52:15.982Z,100.00
2018-12-05T02:54:42.731Z,100.00
2018-12-05T02:57:09.504Z,100.00
2018-12-05T02:59:36.260Z,100.00
2018-12-05T03:02:03.019Z,100.00
2018-12-05T03:04:29.796Z,100.00
2018-12-05T03:06:56.565Z,100.00
2018-12-05T03:09:23.356Z,100.00
2018-12-05T03:11:50.136Z,100.00
2018-12-05T03:14:16.913Z,100.00
2018-12-05T03:16:43.709Z,100.00
2018-12-05T03:19:10.474Z,100.00
2018-12-05T03:21:37.248Z,100.00
2018-12-05T03:24:04.096Z,100.00
2018-12-05T03:26:30.849Z,100.00
2018-12-05T03:28:57.633Z,100.00
2018-12-05T03:31:24.402Z,100.00
2018-12-05T03:33:51.170Z,99.66
2018-12-05T03:36:18.001Z,100.00
2018-12-05T03:38:44.800Z,99.98
2018-12-05T03:41:11.557Z,99.81
2018-12-05T03:43:38.341Z,99.64
2018-12-05T03:46:05.104Z,99.28
2018-12-05T03:48:31.877Z,99.70
2018-12-05T03:50:58.665Z,99.32
2018-12-05T03:53:25.448Z,98.40
2018-12-05T03:55:52.220Z,97.59
2018-12-05T03:58:19.013Z,96.55
2018-12-05T04:00:45.780Z,95.59
2018-12-05T04:03:12.603Z,96.49
2018-12-05T04:05:39.363Z,97.46
2018-12-05T04:08:06.141Z,97.34
2018-12-05T04:10:33.095Z,97.78
2018-12-05T04:13:00.263Z,98.03
2018-12-05T04:15:27.033Z,98.37
2018-12-05T04:17:53.805Z,97.94
2018-12-05T04:20:20.584Z,97.66
2018-12-05T04:22:47.357Z,98.19
2018-12-05T04:25:14.122Z,97.85
2018-12-05T04:27:40.885Z,98.27
2018-12-05T04:30:07.669Z,98.23
2018-12-05T04:32:34.425Z,98.11
2018-12-05T04:35:01.189Z,97.55
2018-12-05T04:37:27.958Z,97.83
2018-12-05T04:39:54.757Z,97.46
2018-12-05T04:42:21.516Z,96.76
2018-12-05T04:44:48.307Z,96.79
2018-12-05T04:47:15.085Z,97.70
2018-12-05T04:49:41.860Z,98.25
2018-12-05T04:52:08.619Z,98.51
2018-12-05T04:54:35.382Z,98.59
2018-12-05T04:57:02.165Z,99.12
2018-12-05T04:59:28.945Z,99.80
2018-12-05T05:01:55.712Z,99.75
2018-12-05T05:04:22.502Z,99.66
2018-12-05T05:06:49.263Z,99.76
2018-12-05T05:09:16.037Z,100.00
2018-12-05T05:11:42.827Z,100.00
2018-12-05T05:14:09.692Z,100.00
2018-12-05T05:16:36.440Z,99.25
2018-12-05T05:19:03.225Z,99.05
2018-12-05T05:21:30.105Z,99.27
2018-12-05T05:23:56.889Z,99.19
2018-12-05T05:26:23.651Z,99.35
2018-12-05T05:28:50.402Z,99.54
2018-12-05T05:31:17.173Z,99.67
2018-12-05T05:33:43.933Z,99.58
2018-12-05T05:36:10.717Z,99.65
2018-12-05T05:38:37.493Z,99.87
2018-12-05T05:41:04.276Z,99.29
2018-12-05T05:43:31.040Z,99.23
2018-12-05T05:45:57.820Z,99.42
2018-12-05T05:48:24.570Z,99.79
2018-12-05T05:50:51.351Z,100.00
2018-12-05T05:53:18.117Z,100.00
2018-12-05T05:55:44.905Z,100.00
2018-12-05T05:58:11.680Z,99.40
2018-12-05T06:00:38.497Z,99.08
2018-12-05T06:03:05.258Z,99.58
2018-12-05T06:05:32.052Z,99.62
2018-12-05T06:07:58.869Z,99.71
2018-12-05T06:10:25.661Z,99.54
2018-12-05T06:12:52.418Z,99.58
2018-12-05T06:15:19.201Z,99.59
2018-12-05T06:17:45.972Z,99.69
2018-12-05T06:20:12.762Z,99.67
2018-12-05T06:22:39.509Z,99.40
2018-12-05T06:25:06.277Z,99.43
2018-12-05T06:27:33.118Z,99.42
2018-12-05T06:29:59.877Z,99.37
2018-12-05T06:32:26.637Z,99.31
2018-12-05T06:34:53.429Z,98.90
2018-12-05T06:37:20.193Z,99.33
2018-12-05T06:39:46.988Z,99.06
2018-12-05T06:42:13.736Z,98.86
2018-12-05T06:44:40.529Z,98.64
2018-12-05T06:47:07.293Z,98.62
2018-12-05T06:49:34.092Z,98.46
2018-12-05T06:52:00.851Z,98.60
2018-12-05T06:54:27.610Z,98.84
2018-12-05T06:56:54.383Z,98.76
2018-12-05T06:59:21.157Z,98.22
2018-12-05T07:01:47.936Z,97.69
2018-12-05T07:04:14.716Z,97.36
2018-12-05T07:06:41.489Z,96.82
2018-12-05T07:09:08.481Z,97.71
2018-12-05T07:11:35.250Z,97.69
2018-12-05T07:14:02.041Z,97.29
2018-12-05T07:16:28.861Z,96.99
2018-12-05T07:18:55.620Z,96.87
2018-12-05T07:21:22.489Z,97.66
2018-12-05T07:23:49.265Z,97.85
2018-12-05T07:26:16.052Z,97.77
2018-12-05T07:28:42.824Z,98.05
2018-12-05T07:31:09.601Z,97.73
2018-12-05T07:33:36.372Z,96.49
2018-12-05T07:36:03.164Z,96.54
2018-12-05T07:38:29.929Z,96.65
2018-12-05T07:40:56.728Z,96.58
2018-12-05T07:43:23.520Z,96.62
2018-12-05T07:45:50.352Z,96.73
2018-12-05T07:48:17.128Z,97.16
2018-12-05T07:50:43.917Z,96.94
2018-12-05T07:53:10.684Z,97.29
2018-12-05T07:55:37.463Z,97.60
2018-12-05T07:58:04.228Z,98.02
2018-12-05T08:00:31.008Z,98.73
2018-12-05T08:02:57.781Z,98.73
2018-12-05T08:05:24.560Z,98.59
2018-12-05T08:07:51.312Z,98.73
2018-12-05T08:10:18.094Z,99.05
2018-12-05T08:12:44.884Z,98.80
2018-12-05T08:15:11.649Z,97.80
2018-12-05T08:17:38.417Z,97.43
2018-12-05T08:20:05.220Z,98.02
2018-12-05T08:22:31.997Z,98.35
2018-12-05T08:24:58.753Z,97.86
2018-12-05T08:27:25.530Z,97.76
2018-12-05T08:29:52.297Z,97.17
2018-12-05T08:32:19.093Z,97.48
2018-12-05T08:34:45.838Z,97.38
2018-12-05T08:37:12.624Z,96.79
2018-12-05T08:39:39.389Z,96.83
2018-12-05T08:42:06.181Z,96.66
2018-12-05T08:44:32.953Z,96.62
2018-12-05T08:46:59.745Z,95.86
2018-12-05T08:49:26.546Z,96.16
2018-12-05T08:51:53.327Z,94.19
2018-12-05T08:54:21.293Z,95.01
2018-12-05T08:56:46.876Z,94.73
2018-12-05T08:59:13.658Z,92.99
2018-12-05T09:01:40.456Z,93.33
2018-12-05T09:04:07.225Z,93.33
2018-12-05T09:06:34.068Z,93.37
2018-12-05T09:09:00.821Z,92.93
2018-12-05T09:11:27.603Z,92.71
2018-12-05T09:13:54.372Z,92.24
2018-12-05T09:16:21.168Z,92.21
2018-12-05T09:18:47.968Z,92.12
2018-12-05T09:21:14.746Z,91.24
2018-12-05T09:23:41.501Z,91.19
2018-12-05T09:26:08.281Z,90.70
2018-12-05T09:28:35.049Z,89.53
2018-12-05T09:31:01.833Z,90.86
2018-12-05T09:33:28.599Z,91.40
2018-12-05T09:35:55.383Z,91.81
2018-12-05T09:38:22.186Z,92.18
2018-12-05T09:40:48.938Z,92.15
2018-12-05T09:43:15.737Z,92.07
2018-12-05T09:45:42.560Z,91.36
2018-12-05T09:48:09.351Z,92.25
2018-12-05T09:50:36.126Z,91.25
2018-12-05T09:53:02.884Z,91.77
2018-12-05T09:55:29.652Z,90.56
2018-12-05T09:57:56.445Z,90.71
2018-12-05T10:00:23.221Z,90.35
2018-12-05T10:02:50.033Z,88.25
2018-12-05T10:05:16.809Z,88.61
2018-12-05T10:07:43.581Z,90.43
2018-12-05T10:10:10.358Z,89.05
2018-12-05T10:12:37.140Z,87.48
2018-12-05T10:15:04.992Z,86.23
2018-12-05T10:17:31.766Z,85.88
2018-12-05T10:19:58.609Z,85.16
2018-12-05T10:22:25.385Z,85.59
2018-12-05T10:24:52.144Z,86.35
2018-12-05T10:27:18.929Z,86.29
2018-12-05T10:29:45.698Z,87.73
2018-12-05T10:32:12.491Z,86.40
2018-12-05T10:34:39.249Z,86.25
2018-12-05T10:37:06.190Z,86.37
2018-12-05T10:39:32.961Z,87.70
2018-12-05T10:41:59.759Z,86.88
2018-12-05T10:44:26.517Z,88.66
2018-12-05T10:46:53.296Z,88.69
2018-12-05T10:49:20.054Z,89.50
2018-12-05T10:51:46.854Z,88.58
2018-12-05T10:54:13.604Z,88.26
2018-12-05T10:56:40.388Z,88.46
2018-12-05T10:59:07.144Z,88.57
2018-12-05T11:01:39.612Z,87.98
2018-12-05T11:04:12.101Z,87.27
2018-12-05T11:06:58.531Z,87.41
2018-12-05T11:09:31.110Z,88.13
2018-12-05T11:12:03.719Z,86.78
2018-12-05T11:14:36.285Z,86.64
2018-12-05T11:17:08.926Z,87.96
2018-12-05T11:19:41.473Z,88.95
2018-12-05T11:22:27.870Z,88.38
2018-12-05T11:25:02.122Z,89.07
2018-12-05T11:27:28.979Z,88.50
2018-12-05T11:29:55.744Z,87.88
2018-12-05T11:32:22.577Z,87.34
2018-12-05T11:34:49.384Z,87.36
2018-12-05T11:37:16.163Z,87.50
2018-12-05T11:39:42.920Z,87.39
2018-12-05T11:42:09.693Z,87.85
2018-12-05T11:44:36.472Z,88.22
2018-12-05T11:47:03.262Z,88.13
2018-12-05T11:49:30.132Z,86.90
2018-12-05T11:51:56.941Z,87.24
2018-12-05T11:54:23.721Z,87.19
2018-12-05T11:56:50.608Z,87.33
2018-12-05T11:59:17.373Z,87.04
2018-12-05T12:01:44.214Z,86.74
2018-12-05T12:04:11.013Z,85.80
2018-12-05T12:06:38.840Z,86.21
2018-12-05T12:09:08.020Z,86.27
2018-12-05T12:11:34.916Z,87.66
2018-12-05T12:14:01.809Z,86.79
2018-12-05T12:16:28.676Z,86.87
2018-12-05T12:18:55.454Z,87.57
2018-12-05T12:21:22.291Z,86.65
2018-12-05T12:23:49.065Z,86.39
2018-12-05T12:26:15.841Z,86.23
2018-12-05T12:28:42.645Z,86.14
2018-12-05T12:31:09.421Z,84.73
2018-12-05T12:33:36.421Z,84.70
2018-12-05T12:36:03.177Z,83.49
2018-12-05T12:38:29.960Z,84.17
2018-12-05T12:40:56.817Z,83.46
2018-12-05T12:43:23.801Z,84.84
2018-12-05T12:45:50.560Z,84.40
2018-12-05T12:48:17.341Z,85.22
2018-12-05T12:50:44.260Z,85.49
2018-12-05T12:53:11.023Z,84.79
2018-12-05T12:55:37.853Z,85.08
2018-12-05T12:58:04.673Z,84.44
2018-12-05T13:00:31.430Z,84.34
2018-12-05T13:02:58.233Z,84.66
2018-12-05T13:05:25.009Z,84.46
2018-12-05T13:07:51.853Z,83.13
2018-12-05T13:10:18.657Z,84.00
2018-12-05T13:12:45.581Z,83.74
2018-12-05T13:15:12.401Z,83.06
2018-12-05T13:17:39.201Z,82.66
2018-12-05T13:20:06.676Z,82.85
2018-12-05T13:22:33.460Z,82.17
2018-12-05T13:25:00.394Z,82.05
2018-12-05T13:27:27.171Z,82.23
2018-12-05T13:29:53.961Z,81.46
2018-12-05T13:32:20.736Z,82.23
2018-12-05T13:34:47.524Z,82.06
2018-12-05T13:37:14.373Z,83.37
2018-12-05T13:39:41.172Z,83.58
2018-12-05T13:42:07.941Z,84.35
2018-12-05T13:44:34.727Z,84.84
2018-12-05T13:47:01.669Z,84.78
2018-12-05T13:49:28.783Z,85.64
2018-12-05T13:51:55.254Z,85.64
2018-12-05T13:54:22.082Z,84.82
2018-12-05T13:56:48.841Z,85.56
2018-12-05T13:59:15.625Z,85.24
2018-12-05T14:01:42.409Z,84.78
2018-12-05T14:04:09.205Z,85.51
2018-12-05T14:06:35.973Z,84.41
2018-12-05T14:09:04.214Z,84.58
2018-12-05T14:11:30.982Z,83.77
2018-12-05T14:13:57.756Z,84.66
2018-12-05T14:16:24.509Z,84.49
2018-12-05T14:18:51.292Z,84.37
2018-12-05T14:21:18.071Z,85.30
2018-12-05T14:23:44.844Z,85.44
2018-12-05T14:26:11.660Z,83.36
2018-12-05T14:28:38.440Z,82.55
2018-12-05T14:31:05.202Z,84.78
2018-12-05T14:33:31.970Z,85.11
2018-12-05T14:35:58.758Z,85.29
2018-12-05T14:38:25.504Z,84.10
2018-12-05T14:40:52.442Z,84.47
2018-12-05T14:43:19.214Z,84.80
2018-12-05T14:45:46.081Z,84.38
2018-12-05T14:48:13.225Z,85.76
2018-12-05T14:50:40.129Z,84.87
2018-12-05T14:53:06.918Z,84.95
2018-12-05T14:55:33.708Z,86.92
2018-12-05T14:58:00.513Z,86.34
2018-12-05T15:00:27.292Z,87.04
2018-12-05T15:02:54.061Z,87.84
2018-12-05T15:05:20.849Z,88.58
2018-12-05T15:07:47.654Z,89.06
2018-12-05T15:10:14.527Z,89.18
2018-12-05T15:12:42.122Z,91.57
2018-12-05T15:15:08.897Z,91.23
2018-12-05T15:17:35.669Z,91.06
2018-12-05T15:20:02.531Z,91.15
2018-12-05T15:22:29.354Z,91.55
2018-12-05T15:24:56.181Z,91.92
2018-12-05T15:27:23.000Z,92.30
2018-12-05T15:29:49.789Z,91.58
2018-12-05T15:32:16.617Z,91.80
2018-12-05T15:34:43.448Z,92.33
2018-12-05T15:37:10.229Z,92.73
2018-12-05T15:39:37.137Z,92.91
2018-12-05T15:42:03.976Z,93.16
2018-12-05T15:44:30.765Z,92.93
2018-12-05T15:46:57.549Z,92.65
2018-12-05T15:49:24.377Z,92.62
2018-12-05T15:51:51.189Z,92.60
2018-12-05T15:54:17.981Z,92.79
2018-12-05T15:56:44.812Z,93.92
2018-12-05T15:59:11.633Z,93.30
2018-12-05T16:01:38.408Z,94.35
2018-12-05T16:04:05.219Z,93.91
2018-12-05T16:06:32.001Z,94.60
2018-12-05T16:08:58.810Z,94.24
2018-12-05T16:11:25.613Z,94.66
2018-12-05T16:13:52.713Z,94.61
2018-12-05T16:16:19.493Z,94.39
2018-12-05T16:18:46.302Z,94.79
2018-12-05T16:21:13.081Z,95.06
2018-12-05T16:23:39.844Z,94.56
2018-12-05T16:26:10.637Z,95.62
2018-12-05T16:28:33.449Z,95.70
2018-12-05T16:31:00.233Z,95.57
2018-12-05T16:33:27.001Z,95.39
2018-12-05T16:35:53.777Z,94.74
2018-12-05T16:38:20.552Z,95.73
2018-12-05T16:40:47.328Z,95.32
2018-12-05T16:43:14.092Z,96.03
2018-12-05T16:45:40.877Z,95.87
2018-12-05T16:48:07.671Z,96.19
2018-12-05T16:50:34.457Z,96.82
2018-12-05T16:53:01.253Z,96.35
2018-12-05T16:55:28.044Z,96.01
2018-12-05T16:57:54.827Z,94.78
2018-12-05T17:00:21.616Z,94.03
2018-12-05T17:02:48.389Z,95.02
2018-12-05T17:05:15.161Z,94.91
2018-12-05T17:07:42.057Z,95.96
2018-12-05T17:10:08.827Z,95.88
2018-12-05T17:12:35.617Z,95.35
2018-12-05T17:15:02.384Z,94.48
2018-12-05T17:17:29.176Z,94.44
2018-12-05T17:19:56.002Z,94.52
2018-12-05T17:22:22.797Z,93.78
2018-12-05T17:24:49.584Z,94.08
2018-12-05T17:27:17.770Z,94.19
2018-12-05T17:29:43.157Z,94.37
2018-12-05T17:32:09.977Z,94.14
2018-12-05T17:34:36.746Z,95.54
2018-12-05T17:37:03.537Z,95.60
2018-12-05T17:39:30.293Z,95.79
2018-12-05T17:41:57.208Z,95.55
2018-12-05T17:44:23.977Z,96.02
2018-12-05T17:46:50.761Z,96.88
2018-12-05T17:49:17.536Z,97.53
2018-12-05T17:51:44.335Z,96.95
2018-12-05T17:54:14.731Z,96.57
2018-12-05T17:56:37.889Z,96.79
2018-12-05T17:59:04.681Z,96.93
2018-12-05T18:01:31.469Z,96.16
2018-12-05T18:03:58.242Z,96.96
2018-12-05T18:06:25.058Z,96.46
2018-12-05T18:08:51.822Z,97.67
2018-12-05T18:11:18.689Z,98.31
2018-12-05T18:13:45.468Z,98.13
2018-12-05T18:16:12.261Z,97.56
2018-12-05T18:18:39.048Z,97.25
2018-12-05T18:21:05.822Z,96.92
2018-12-05T18:23:32.697Z,97.33
2018-12-05T18:25:59.464Z,98.15
2018-12-05T18:28:26.289Z,97.36
2018-12-05T18:30:53.093Z,97.53
2018-12-05T18:33:19.889Z,97.64
2018-12-05T18:35:46.669Z,97.53
2018-12-05T18:38:13.445Z,96.37
2018-12-05T18:40:40.245Z,96.13
2018-12-05T18:43:07.013Z,95.93
2018-12-05T18:45:33.806Z,95.11
2018-12-05T18:48:00.588Z,95.24
2018-12-05T18:50:27.388Z,96.12
2018-12-05T18:52:54.166Z,96.76
2018-12-05T18:55:20.961Z,97.33
2018-12-05T18:57:47.749Z,96.91
2018-12-05T19:00:14.654Z,97.06
2018-12-05T19:02:41.420Z,96.93
2018-12-05T19:05:08.360Z,97.06
2018-12-05T19:07:35.171Z,97.30
2018-12-05T19:10:02.189Z,96.49
2018-12-05T19:12:29.180Z,96.93
2018-12-05T19:14:56.101Z,97.41
2018-12-05T19:17:22.931Z,97.54
2018-12-05T19:19:49.752Z,97.03
2018-12-05T19:22:16.602Z,96.68
2018-12-05T19:24:43.694Z,95.37
2018-12-05T19:27:10.474Z,95.39
2018-12-05T19:29:37.253Z,96.03
2018-12-05T19:32:04.059Z,95.64
2018-12-05T19:34:31.262Z,95.19
2018-12-05T19:36:58.113Z,96.20
2018-12-05T19:39:24.880Z,96.62
2018-12-05T19:41:51.665Z,96.96
2018-12-05T19:44:18.497Z,97.84
2018-12-05T19:46:45.348Z,99.33
2018-12-05T19:49:12.120Z,100.00
2018-12-05T19:51:38.923Z,100.00
2018-12-05T19:54:05.721Z,100.00
2018-12-05T19:56:32.501Z,100.00
2018-12-05T19:58:59.261Z,100.00
2018-12-05T20:01:26.045Z,100.00
2018-12-05T20:03:52.813Z,100.00
2018-12-05T20:06:19.685Z,100.00
2018-12-05T20:08:46.453Z,98.86
2018-12-05T20:11:13.252Z,96.93
2018-12-05T20:13:40.023Z,97.35
2018-12-05T20:16:06.797Z,95.55
2018-12-05T20:18:33.565Z,95.45
2018-12-05T20:21:00.372Z,95.66
2018-12-05T20:23:27.253Z,93.65
2018-12-05T20:25:54.013Z,94.29
2018-12-05T20:28:20.808Z,93.83
2018-12-05T20:30:47.589Z,93.84
2018-12-05T20:33:14.424Z,93.81
2018-12-05T20:35:41.200Z,93.69
2018-12-05T20:38:07.984Z,93.39
2018-12-05T20:40:34.744Z,93.67
2018-12-05T20:43:01.541Z,92.92
2018-12-05T20:45:28.300Z,92.72
2018-12-05T20:47:55.081Z,93.48
2018-12-05T20:50:21.844Z,93.62
2018-12-05T20:52:48.632Z,92.92
2018-12-05T20:55:15.405Z,93.18
2018-12-05T20:57:42.208Z,91.05
2018-12-05T21:00:09.053Z,90.28
2018-12-05T21:02:35.856Z,91.49
2018-12-05T21:05:02.646Z,92.06
2018-12-05T21:07:29.420Z,92.54
2018-12-05T21:09:56.188Z,92.31
2018-12-05T21:12:22.973Z,92.10
2018-12-05T21:14:49.728Z,92.16
2018-12-05T21:17:16.561Z,91.79
2018-12-05T21:19:43.329Z,91.93
2018-12-05T21:22:10.125Z,89.68
2018-12-05T21:24:36.885Z,91.05
2018-12-05T21:27:03.681Z,91.68
2018-12-05T21:29:30.446Z,92.83
2018-12-05T21:31:57.234Z,91.96
2018-12-05T21:34:24.012Z,92.88
2018-12-05T21:36:50.813Z,91.92
2018-12-05T21:39:17.580Z,91.91
2018-12-05T21:41:44.465Z,92.12
2018-12-05T21:44:11.230Z,92.39
2018-12-05T21:46:37.984Z,91.97
2018-12-05T21:49:04.777Z,91.26
2018-12-05T21:51:31.533Z,91.86
2018-12-05T21:53:58.321Z,91.79
2018-12-05T21:56:25.093Z,92.02
2018-12-05T21:58:51.883Z,92.04
2018-12-05T22:01:18.648Z,92.07
2018-12-05T22:03:45.432Z,92.56
2018-12-05T22:06:12.200Z,91.48
2018-12-05T22:08:38.973Z,92.90
2018-12-05T22:11:05.736Z,92.88
2018-12-05T22:13:32.532Z,92.93
2018-12-05T22:15:59.326Z,91.83
2018-12-05T22:18:26.105Z,92.82
2018-12-05T22:20:52.876Z,92.72
2018-12-05T22:23:19.657Z,93.15
2018-12-05T22:25:46.433Z,93.59
2018-12-05T22:28:13.223Z,91.42
2018-12-05T22:30:39.981Z,91.56
2018-12-05T22:33:06.761Z,92.40
2018-12-05T22:35:33.524Z,92.74
2018-12-05T22:38:00.310Z,93.07
2018-12-05T22:40:27.093Z,93.17
2018-12-05T22:42:53.867Z,91.13
2018-12-05T22:45:20.628Z,92.30
2018-12-05T22:47:47.409Z,92.03
2018-12-05T22:50:14.193Z,91.94
2018-12-05T22:52:43.789Z,92.71
2018-12-05T22:55:10.649Z,92.82
2018-12-05T22:57:37.437Z,93.13
2018-12-05T23:00:06.006Z,92.82
2018-12-05T23:02:32.785Z,93.32
2018-12-05T23:04:59.548Z,93.46
2018-12-05T23:07:26.309Z,94.23
2018-12-05T23:09:53.084Z,93.99
2018-12-05T23:12:19.849Z,94.40
2018-12-05T23:14:46.632Z,94.91
2018-12-05T23:17:13.392Z,95.93
2018-12-05T23:19:40.170Z,95.70
2018-12-05T23:22:06.933Z,95.00
2018-12-05T23:24:33.713Z,94.40
2018-12-05T23:27:00.477Z,94.72
2018-12-05T23:29:27.265Z,94.94
2018-12-05T23:31:54.056Z,93.61
2018-12-05T23:34:20.950Z,93.89
2018-12-05T23:36:47.697Z,93.62
2018-12-05T23:39:14.476Z,93.77
2018-12-05T23:41:41.245Z,93.98
2018-12-05T23:44:08.024Z,94.18
2018-12-05T23:46:34.788Z,94.66
2018-12-05T23:49:01.585Z,92.39
2018-12-05T23:51:28.345Z,93.92
2018-12-05T23:53:55.136Z,93.86
2018-12-05T23:56:21.910Z,91.98
2018-12-05T23:58:48.694Z,92.79
